createdAt,value
2022-11-09T00:01:41.393Z,22.20
2022-11-09T00:04:08.262Z,20.10
2022-11-09T00:06:35.293Z,17.90
2022-11-09T00:09:07.928Z,20.60
2022-11-09T00:11:36.748Z,20.53
2022-11-09T00:14:03.309Z,20.23
2022-11-09T00:16:30.210Z,18.97
2022-11-09T00:18:56.313Z,16.27
2022-11-09T00:21:24.305Z,17.43
2022-11-09T00:23:51.086Z,18.23
2022-11-09T00:26:19.187Z,20.47
2022-11-09T00:28:45.796Z,21.47
2022-11-09T00:31:16.730Z,18.80
2022-11-09T00:33:49.216Z,17.13
2022-11-09T00:36:16.191Z,21.60
2022-11-09T00:38:42.496Z,16.20
2022-11-09T00:41:10.826Z,21.60
2022-11-09T00:43:37.699Z,17.97
2022-11-09T00:46:05.198Z,22.17
2022-11-09T00:48:31.727Z,20.20
2022-11-09T00:51:00.609Z,19.13
2022-11-09T00:53:27.939Z,19.43
2022-11-09T00:55:57.856Z,20.07
2022-11-09T00:58:26.007Z,20.77
2022-11-09T01:00:53.530Z,23.43
2022-11-09T01:03:20.938Z,19.57
2022-11-09T01:05:47.925Z,21.43
2022-11-09T01:08:17.503Z,22.57
2022-11-09T01:10:47.676Z,26.67
2022-11-09T01:13:16.431Z,22.97
2022-11-09T01:15:47.285Z,25.00
2022-11-09T01:18:14.968Z,21.87
2022-11-09T01:20:44.618Z,28.23
2022-11-09T01:23:12.903Z,23.90
2022-11-09T01:25:39.866Z,23.87
2022-11-09T01:28:07.100Z,23.67
2022-11-09T01:30:36.033Z,25.63
2022-11-09T01:33:03.999Z,24.90
2022-11-09T01:35:34.356Z,21.97
2022-11-09T01:38:01.340Z,22.20
2022-11-09T01:40:28.204Z,22.00
2022-11-09T01:42:57.207Z,23.63
2022-11-09T01:45:26.971Z,21.87
2022-11-09T01:47:58.714Z,31.40
2022-11-09T01:50:40.786Z,29.27
2022-11-09T01:53:15.544Z,29.13
2022-11-09T01:55:43.885Z,22.90
2022-11-09T01:58:15.233Z,29.63
2022-11-09T02:00:45.854Z,26.77
2022-11-09T02:03:19.335Z,21.47
2022-11-09T02:05:47.486Z,20.43
2022-11-09T02:08:16.480Z,17.97
2022-11-09T02:10:58.250Z,19.53
2022-11-09T02:13:27.248Z,23.97
2022-11-09T02:15:53.886Z,22.83
2022-11-09T02:18:20.720Z,19.80
2022-11-09T02:20:56.135Z,21.93
2022-11-09T02:23:24.987Z,21.40
2022-11-09T02:25:56.544Z,24.83
2022-11-09T02:28:26.761Z,24.97
2022-11-09T02:30:56.089Z,24.83
2022-11-09T02:33:23.447Z,24.83
2022-11-09T02:35:50.125Z,23.00
2022-11-09T02:38:16.288Z,23.30
2022-11-09T02:40:47.937Z,23.97
2022-11-09T02:43:16.327Z,20.60
2022-11-09T02:45:44.122Z,21.83
2022-11-09T02:48:10.232Z,20.30
2022-11-09T02:50:37.263Z,19.37
2022-11-09T02:53:05.399Z,19.70
2022-11-09T02:55:34.796Z,21.03
2022-11-09T02:58:01.112Z,21.47
2022-11-09T03:00:27.598Z,21.47
2022-11-09T03:02:54.506Z,19.37
2022-11-09T03:05:20.935Z,20.10
2022-11-09T03:07:47.836Z,21.50
2022-11-09T03:10:14.526Z,21.67
2022-11-09T03:12:41.175Z,19.67
2022-11-09T03:15:14.172Z,22.07
2022-11-09T03:17:43.917Z,22.00
2022-11-09T03:20:10.796Z,21.07
2022-11-09T03:22:38.615Z,21.57
2022-11-09T03:25:05.794Z,20.77
2022-11-09T03:27:32.782Z,20.53
2022-11-09T03:29:59.250Z,19.23
2022-11-09T03:32:25.835Z,20.90
2022-11-09T03:34:52.287Z,18.40
2022-11-09T03:37:19.171Z,21.37
2022-11-09T03:39:45.613Z,21.90
2022-11-09T03:42:11.744Z,19.67
2022-11-09T03:44:39.183Z,21.10
2022-11-09T03:47:05.320Z,22.97
2022-11-09T03:49:31.704Z,24.37
2022-11-09T03:51:57.805Z,36.43
2022-11-09T03:54:24.217Z,58.10
2022-11-09T03:56:50.330Z,51.87
2022-11-09T03:59:16.712Z,39.40
2022-11-09T04:01:43.224Z,31.30
2022-11-09T04:04:09.718Z,29.07
2022-11-09T04:06:36.020Z,27.93
2022-11-09T04:09:02.779Z,28.67
2022-11-09T04:11:28.916Z,28.37
2022-11-09T04:13:55.450Z,30.73
2022-11-09T04:16:21.579Z,31.47
2022-11-09T04:18:47.980Z,40.90
2022-11-09T04:21:14.145Z,34.27
2022-11-09T04:23:40.580Z,31.87
2022-11-09T04:26:06.683Z,33.80
2022-11-09T04:28:33.085Z,25.30
2022-11-09T04:31:00.628Z,25.20
2022-11-09T04:33:27.943Z,23.83
2022-11-09T04:35:54.025Z,23.47
2022-11-09T04:38:20.553Z,23.80
2022-11-09T04:40:46.926Z,23.93
2022-11-09T04:43:15.258Z,24.27
2022-11-09T04:45:41.429Z,24.53
2022-11-09T04:48:09.842Z,24.00
2022-11-09T04:50:36.132Z,22.73
2022-11-09T04:53:11.210Z,30.10
2022-11-09T04:55:38.485Z,19.90
2022-11-09T04:58:05.644Z,25.10
2022-11-09T05:00:32.348Z,23.03
2022-11-09T05:03:03.771Z,20.30
2022-11-09T05:05:31.846Z,21.00
2022-11-09T05:07:58.275Z,20.13
2022-11-09T05:10:24.394Z,19.03
2022-11-09T05:12:56.820Z,22.20
2022-11-09T05:15:23.211Z,23.13
2022-11-09T05:17:49.984Z,22.40
2022-11-09T05:20:16.173Z,21.13
2022-11-09T05:23:01.369Z,23.93
2022-11-09T05:25:27.565Z,22.20
2022-11-09T05:27:54.338Z,22.90
2022-11-09T05:30:20.856Z,19.77
2022-11-09T05:32:47.386Z,19.73
2022-11-09T05:35:13.761Z,20.90
2022-11-09T05:37:40.611Z,22.70
2022-11-09T05:40:08.577Z,24.23
2022-11-09T05:42:39.034Z,30.43
2022-11-09T05:45:35.503Z,27.37
2022-11-09T05:47:52.707Z,26.40
2022-11-09T05:50:19.030Z,22.10
2022-11-09T05:52:50.285Z,25.37
2022-11-09T05:55:16.458Z,28.27
2022-11-09T05:57:43.081Z,26.90
2022-11-09T06:00:11.157Z,23.40
2022-11-09T06:02:39.639Z,27.63
2022-11-09T06:05:06.047Z,22.17
2022-11-09T06:07:32.834Z,27.93
2022-11-09T06:09:59.057Z,27.00
2022-11-09T06:12:25.511Z,21.53
2022-11-09T06:14:51.674Z,25.63
2022-11-09T06:17:18.172Z,20.60
2022-11-09T06:19:44.290Z,23.43
2022-11-09T06:22:11.762Z,24.60
2022-11-09T06:24:38.505Z,24.67
2022-11-09T06:27:05.720Z,21.53
2022-11-09T06:29:32.327Z,20.80
2022-11-09T06:31:59.356Z,23.93
2022-11-09T06:34:25.665Z,23.67
2022-11-09T06:36:52.535Z,23.90
2022-11-09T06:39:18.735Z,22.30
2022-11-09T06:41:47.554Z,26.63
2022-11-09T06:44:14.693Z,23.40
2022-11-09T06:46:41.189Z,21.87
2022-11-09T06:49:07.573Z,23.60
2022-11-09T06:51:33.985Z,24.97
2022-11-09T06:54:00.139Z,27.57
2022-11-09T06:56:26.589Z,26.80
2022-11-09T06:58:52.730Z,22.43
2022-11-09T07:01:22.596Z,25.10
2022-11-09T07:03:49.036Z,24.43
2022-11-09T07:06:15.414Z,27.07
2022-11-09T07:08:41.695Z,34.03
2022-11-09T07:11:15.493Z,37.87
2022-11-09T07:13:41.729Z,34.07
2022-11-09T07:16:08.518Z,33.13
2022-11-09T07:18:34.775Z,34.37
2022-11-09T07:21:06.653Z,34.07
2022-11-09T07:23:34.877Z,25.60
2022-11-09T07:26:01.456Z,28.50
2022-11-09T07:28:28.046Z,36.97
2022-11-09T07:30:56.389Z,31.07
2022-11-09T07:33:23.286Z,37.70
2022-11-09T07:35:50.404Z,32.67
2022-11-09T07:38:16.886Z,31.63
2022-11-09T07:40:43.779Z,34.80
2022-11-09T07:43:11.660Z,35.00
2022-11-09T07:45:40.079Z,27.57
2022-11-09T07:48:09.232Z,26.30
2022-11-09T07:50:37.148Z,26.33
2022-11-09T07:53:06.382Z,23.37
2022-11-09T07:55:33.855Z,24.50
2022-11-09T07:58:19.198Z,26.10
2022-11-09T08:00:45.726Z,22.83
2022-11-09T08:03:12.138Z,22.70
2022-11-09T08:05:39.200Z,26.77
2022-11-09T08:08:07.763Z,23.47
2022-11-09T08:10:35.487Z,24.47
2022-11-09T08:13:04.192Z,22.23
2022-11-09T08:15:31.027Z,24.93
2022-11-09T08:18:03.196Z,22.73
2022-11-09T08:20:30.346Z,22.53
2022-11-09T08:23:01.019Z,23.73
2022-11-09T08:25:32.982Z,23.10
2022-11-09T08:28:01.120Z,24.83
2022-11-09T08:30:27.593Z,26.63
2022-11-09T08:32:54.043Z,26.13
2022-11-09T08:35:23.034Z,22.20
2022-11-09T08:37:51.269Z,31.23
2022-11-09T08:40:23.672Z,27.43
2022-11-09T08:42:50.841Z,27.83
2022-11-09T08:45:18.008Z,23.10
2022-11-09T08:47:44.988Z,24.23
2022-11-09T08:50:13.513Z,22.67
2022-11-09T08:52:40.328Z,26.17
2022-11-09T08:55:07.751Z,39.83
2022-11-09T08:57:33.992Z,34.83
2022-11-09T09:00:00.714Z,28.70
2022-11-09T09:02:27.207Z,26.20
2022-11-09T09:04:53.890Z,25.63
2022-11-09T09:07:20.769Z,27.40
2022-11-09T09:09:49.852Z,23.63
2022-11-09T09:12:16.528Z,21.50
2022-11-09T09:14:43.183Z,26.17
2022-11-09T09:17:09.636Z,26.10
2022-11-09T09:19:36.214Z,23.63
2022-11-09T09:22:02.555Z,27.57
2022-11-09T09:24:32.132Z,24.10
2022-11-09T09:26:58.390Z,25.47
2022-11-09T09:29:24.915Z,27.03
2022-11-09T09:31:51.092Z,22.20
2022-11-09T09:34:18.001Z,25.30
2022-11-09T09:36:48.000Z,23.07
2022-11-09T09:39:15.349Z,21.90
2022-11-09T09:41:52.620Z,23.57
2022-11-09T09:44:37.921Z,27.10
2022-11-09T09:47:07.318Z,22.17
2022-11-09T09:49:39.372Z,25.60
2022-11-09T09:52:11.335Z,22.07
2022-11-09T09:54:44.350Z,24.03
2022-11-09T09:57:18.958Z,23.83
2022-11-09T09:59:54.478Z,26.90
2022-11-09T10:02:24.284Z,23.43
2022-11-09T10:04:53.572Z,24.30
2022-11-09T10:07:37.132Z,22.70
2022-11-09T10:10:35.672Z,21.23
2022-11-09T10:13:32.249Z,22.57
2022-11-09T10:16:13.374Z,24.20
2022-11-09T10:19:17.607Z,26.23
2022-11-09T10:22:07.363Z,23.63
2022-11-09T10:25:18.483Z,23.57
2022-11-09T10:27:46.272Z,25.37
2022-11-09T10:30:16.021Z,22.83
2022-11-09T10:32:50.513Z,21.33
2022-11-09T10:35:21.420Z,20.87
2022-11-09T10:37:52.287Z,21.37
2022-11-09T10:40:24.962Z,21.03
2022-11-09T10:43:14.432Z,19.47
2022-11-09T10:46:04.930Z,19.50
2022-11-09T10:48:52.167Z,21.20
2022-11-09T10:51:42.143Z,20.80
2022-11-09T10:54:32.044Z,18.53
2022-11-09T10:57:22.485Z,20.17
2022-11-09T11:00:15.695Z,25.90
2022-11-09T11:03:16.337Z,20.53
2022-11-09T11:06:04.534Z,20.37
2022-11-09T11:09:05.344Z,19.27
2022-11-09T11:12:19.733Z,19.70
2022-11-09T11:15:22.322Z,19.97
2022-11-09T11:18:23.023Z,20.93
2022-11-09T11:21:19.853Z,18.40
2022-11-09T11:24:15.563Z,18.40
2022-11-09T11:27:39.734Z,16.40
2022-11-09T11:30:31.250Z,19.77
2022-11-09T11:33:19.504Z,20.80
2022-11-09T11:36:20.788Z,22.13
2022-11-09T11:39:26.064Z,20.63
2022-11-09T11:42:37.938Z,17.90
2022-11-09T11:45:55.919Z,18.00
2022-11-09T11:48:56.597Z,20.60
2022-11-09T11:51:50.439Z,17.20
2022-11-09T11:55:13.024Z,21.13
2022-11-09T11:58:22.358Z,18.33
2022-11-09T12:01:35.695Z,19.47
2022-11-09T12:04:32.241Z,20.43
2022-11-09T12:07:25.799Z,18.40
2022-11-09T12:10:23.121Z,15.93
2022-11-09T12:13:30.116Z,17.13
2022-11-09T12:16:48.796Z,16.87
2022-11-09T12:20:11.650Z,15.47
2022-11-09T12:23:08.821Z,15.73
2022-11-09T12:26:04.161Z,20.40
2022-11-09T12:29:29.632Z,18.47
2022-11-09T12:32:21.020Z,16.57
2022-11-09T12:35:38.025Z,16.67
2022-11-09T12:38:31.790Z,17.37
2022-11-09T12:41:20.574Z,17.53
2022-11-09T12:44:19.037Z,17.33
2022-11-09T12:47:14.838Z,20.90
2022-11-09T12:50:00.023Z,16.07
2022-11-09T12:52:46.823Z,16.23
2022-11-09T12:55:40.584Z,14.60
2022-11-09T12:58:28.769Z,17.67
2022-11-09T13:01:33.717Z,15.57
2022-11-09T13:04:21.010Z,16.80
2022-11-09T13:07:06.461Z,22.27
2022-11-09T13:09:57.203Z,17.43
2022-11-09T13:12:43.086Z,23.27
2022-11-09T13:15:33.726Z,17.87
2022-11-09T13:18:24.049Z,18.37
2022-11-09T13:21:21.591Z,15.50
2022-11-09T13:24:52.297Z,20.27
2022-11-09T13:27:46.391Z,20.97
2022-11-09T13:30:40.319Z,17.67
2022-11-09T13:33:27.239Z,23.80
2022-11-09T13:36:16.024Z,27.13
2022-11-09T13:39:30.567Z,25.47
2022-11-09T13:42:36.084Z,19.37
2022-11-09T13:45:37.399Z,32.73
2022-11-09T13:48:42.612Z,36.70
2022-11-09T13:51:36.247Z,21.37
2022-11-09T13:54:35.059Z,25.03
2022-11-09T13:57:23.053Z,23.37
2022-11-09T14:00:34.808Z,21.30
2022-11-09T14:03:25.045Z,20.53
2022-11-09T14:06:12.087Z,26.47
2022-11-09T14:08:59.504Z,30.63
2022-11-09T14:11:48.397Z,32.57
2022-11-09T14:15:00.868Z,27.83
2022-11-09T14:18:19.947Z,30.53
2022-11-09T14:21:22.757Z,37.13
2022-11-09T14:24:20.171Z,39.30
2022-11-09T14:27:08.562Z,30.83
2022-11-09T14:29:56.085Z,26.70
2022-11-09T14:32:51.630Z,29.77
2022-11-09T14:35:38.550Z,23.00
2022-11-09T14:38:28.059Z,21.60
2022-11-09T14:41:22.524Z,20.27
2022-11-09T14:44:15.602Z,20.60
2022-11-09T14:47:01.544Z,29.73
2022-11-09T14:49:47.043Z,31.93
2022-11-09T14:52:32.310Z,31.97
2022-11-09T14:55:19.452Z,34.40
2022-11-09T14:58:05.094Z,25.00
2022-11-09T15:01:22.341Z,25.17
2022-11-09T15:04:19.537Z,28.53
2022-11-09T15:07:04.582Z,34.97
2022-11-09T15:09:58.775Z,46.97
2022-11-09T15:12:49.395Z,41.00
2022-11-09T15:15:35.555Z,24.27
2022-11-09T15:18:30.344Z,28.90
2022-11-09T15:21:27.399Z,26.93
2022-11-09T15:24:12.091Z,59.73
2022-11-09T15:26:57.963Z,135.97
2022-11-09T15:29:43.414Z,118.50
2022-11-09T15:32:33.557Z,92.37
2022-11-09T15:35:18.719Z,48.80
2022-11-09T15:38:03.882Z,55.17
2022-11-09T15:40:48.805Z,58.93
2022-11-09T15:43:34.197Z,54.90
2022-11-09T15:46:25.327Z,56.23
2022-11-09T15:49:28.384Z,49.87
2022-11-09T15:52:13.808Z,47.47
2022-11-09T15:54:59.476Z,43.93
2022-11-09T15:57:44.310Z,48.20
2022-11-09T16:00:29.446Z,49.47
2022-11-09T16:03:16.618Z,52.80
2022-11-09T16:06:01.572Z,61.83
2022-11-09T16:08:48.407Z,66.03
2022-11-09T16:11:34.179Z,64.97
2022-11-09T16:14:21.366Z,54.13
2022-11-09T16:17:06.737Z,55.13
2022-11-09T16:19:51.974Z,41.83
2022-11-09T16:22:37.409Z,44.30
2022-11-09T16:25:22.388Z,45.33
2022-11-09T16:28:07.623Z,40.90
2022-11-09T16:30:52.520Z,33.90
2022-11-09T16:33:38.951Z,37.77
2022-11-09T16:36:24.748Z,42.93
2022-11-09T16:39:16.541Z,41.00
2022-11-09T16:42:06.673Z,58.13
2022-11-09T16:44:52.552Z,89.37
2022-11-09T16:47:43.217Z,65.67
2022-11-09T16:50:28.333Z,40.27
2022-11-09T16:53:13.169Z,35.07
2022-11-09T16:55:58.155Z,33.53
2022-11-09T16:58:43.712Z,35.80
2022-11-09T17:01:28.776Z,30.60
2022-11-09T17:04:13.469Z,31.17
2022-11-09T17:06:58.768Z,30.93
2022-11-09T17:09:43.580Z,29.23
2022-11-09T17:12:30.451Z,31.53
2022-11-09T17:15:19.543Z,30.13
2022-11-09T17:18:04.747Z,31.37
2022-11-09T17:20:50.219Z,34.73
2022-11-09T17:23:36.014Z,36.87
2022-11-09T17:26:21.443Z,31.00
2022-11-09T17:29:07.458Z,36.57
2022-11-09T17:31:52.604Z,39.20
2022-11-09T17:34:38.781Z,37.17
2022-11-09T17:37:24.137Z,53.67
2022-11-09T17:40:10.344Z,66.43
2022-11-09T17:42:56.718Z,76.20
2022-11-09T17:45:42.279Z,70.73
2022-11-09T17:48:27.609Z,42.47
2022-11-09T17:51:14.645Z,52.47
2022-11-09T17:54:01.434Z,49.73
2022-11-09T17:56:47.042Z,41.50
2022-11-09T17:59:32.181Z,40.83
2022-11-09T18:02:17.952Z,54.13
2022-11-09T18:05:03.555Z,55.47
2022-11-09T18:07:48.701Z,54.30
2022-11-09T18:10:40.819Z,57.07
2022-11-09T18:13:26.620Z,40.23
2022-11-09T18:16:17.742Z,38.73
2022-11-09T18:19:04.267Z,45.87
2022-11-09T18:21:49.093Z,48.93
2022-11-09T18:24:35.804Z,39.73
2022-11-09T18:27:21.522Z,40.20
2022-11-09T18:30:09.600Z,42.20
2022-11-09T18:32:54.779Z,40.03
2022-11-09T18:35:39.738Z,35.73
2022-11-09T18:38:29.412Z,38.77
2022-11-09T18:41:17.394Z,34.43
2022-11-09T18:44:02.751Z,33.30
2022-11-09T18:46:48.119Z,34.33
2022-11-09T18:49:32.888Z,35.23
2022-11-09T18:52:18.248Z,35.63
2022-11-09T18:55:04.423Z,38.23
2022-11-09T18:57:49.368Z,39.30
2022-11-09T19:00:34.431Z,34.07
2022-11-09T19:03:19.725Z,36.93
2022-11-09T19:06:06.709Z,34.90
2022-11-09T19:09:10.816Z,34.37
2022-11-09T19:11:56.418Z,36.80
2022-11-09T19:14:43.327Z,39.03
2022-11-09T19:17:28.327Z,40.03
2022-11-09T19:20:13.802Z,36.50
2022-11-09T19:22:58.781Z,35.63
2022-11-09T19:25:44.092Z,39.13
2022-11-09T19:28:29.070Z,40.50
2022-11-09T19:31:16.792Z,40.47
2022-11-09T19:34:01.631Z,45.33
2022-11-09T19:36:47.551Z,42.23
2022-11-09T19:39:35.365Z,40.53
2022-11-09T19:42:21.180Z,38.57
2022-11-09T19:45:08.771Z,41.93
2022-11-09T19:47:54.084Z,49.73
2022-11-09T19:50:39.174Z,51.57
2022-11-09T19:53:25.707Z,44.87
2022-11-09T19:56:11.411Z,48.43
2022-11-09T19:59:00.381Z,46.07
2022-11-09T20:01:45.175Z,41.10
2022-11-09T20:04:32.783Z,42.00
2022-11-09T20:07:18.350Z,41.30
2022-11-09T20:10:06.480Z,38.63
2022-11-09T20:12:51.531Z,44.73
2022-11-09T20:15:36.788Z,45.77
2022-11-09T20:18:23.183Z,46.97
2022-11-09T20:21:09.239Z,42.97
2022-11-09T20:23:54.591Z,44.90
2022-11-09T20:26:42.936Z,45.27
2022-11-09T20:29:27.992Z,46.73
2022-11-09T20:32:21.352Z,47.37
2022-11-09T20:35:07.409Z,45.20
2022-11-09T20:37:53.080Z,43.43
2022-11-09T20:40:38.270Z,39.63
2022-11-09T20:43:24.501Z,41.00
2022-11-09T20:46:16.192Z,40.63
2022-11-09T20:49:01.672Z,41.87
2022-11-09T20:51:47.428Z,46.87
2022-11-09T20:54:32.351Z,44.90
2022-11-09T20:57:17.810Z,46.20
2022-11-09T21:00:03.961Z,49.00
2022-11-09T21:02:49.124Z,46.27
2022-11-09T21:05:34.486Z,45.83
2022-11-09T21:08:19.543Z,41.43
2022-11-09T21:11:07.090Z,43.27
2022-11-09T21:13:53.349Z,42.13
2022-11-09T21:16:39.454Z,43.47
2022-11-09T21:19:24.766Z,46.03
2022-11-09T21:22:11.001Z,47.23
2022-11-09T21:25:14.538Z,42.73
2022-11-09T21:28:19.023Z,39.30
2022-11-09T21:31:04.709Z,37.47
2022-11-09T21:33:52.601Z,39.63
2022-11-09T21:36:38.010Z,42.10
2022-11-09T21:39:23.948Z,43.00
2022-11-09T21:42:11.410Z,44.83
2022-11-09T21:44:56.645Z,41.93
2022-11-09T21:47:41.767Z,41.97
2022-11-09T21:50:27.114Z,42.70
2022-11-09T21:53:12.239Z,46.27
2022-11-09T21:55:59.577Z,43.20
2022-11-09T21:58:48.166Z,39.83
2022-11-09T22:01:33.687Z,41.43
2022-11-09T22:04:18.726Z,40.87
2022-11-09T22:07:03.715Z,41.43
2022-11-09T22:10:09.528Z,40.63
2022-11-09T22:13:13.978Z,45.20
2022-11-09T22:16:08.661Z,40.80
2022-11-09T22:19:12.325Z,42.73
2022-11-09T22:21:57.278Z,37.17
2022-11-09T22:24:44.697Z,39.67
2022-11-09T22:27:32.376Z,38.93
2022-11-09T22:30:17.769Z,41.50
2022-11-09T22:33:02.469Z,41.47
2022-11-09T22:35:55.146Z,44.07
2022-11-09T22:38:40.282Z,41.97
2022-11-09T22:41:25.534Z,38.70
2022-11-09T22:44:12.361Z,39.47
2022-11-09T22:46:57.380Z,40.10
2022-11-09T22:49:41.932Z,36.87
2022-11-09T22:52:27.124Z,40.97
2022-11-09T22:55:12.135Z,40.33
2022-11-09T22:57:57.763Z,39.17
2022-11-09T23:00:42.180Z,41.20
2022-11-09T23:03:26.938Z,41.37
2022-11-09T23:06:18.556Z,40.00
2022-11-09T23:09:03.503Z,46.37
2022-11-09T23:11:48.468Z,58.53
2022-11-09T23:14:52.050Z,55.90
2022-11-09T23:17:55.057Z,44.97
2022-11-09T23:20:41.143Z,43.17
2022-11-09T23:23:25.836Z,41.23
2022-11-09T23:26:11.173Z,37.93
2022-11-09T23:28:56.365Z,36.03
2022-11-09T23:31:41.012Z,30.97
2022-11-09T23:34:25.677Z,32.70
2022-11-09T23:37:10.505Z,36.90
2022-11-09T23:39:55.774Z,37.83
2022-11-09T23:42:40.712Z,36.67
2022-11-09T23:45:25.524Z,37.97
2022-11-09T23:48:17.087Z,36.67
2022-11-09T23:51:03.321Z,36.87
2022-11-09T23:53:48.379Z,32.40
2022-11-09T23:56:33.568Z,36.37
2022-11-09T23:59:18.366Z,31.47
